Accueil
METAR-TAF:

METAR-TAF

Aéroports :

Duplin County Airport

Kenansville, Caroline du Nord, États-Unis

latitude: 35-00-00N, longitude: 077-58-54W, altitude: 42 m

Observation

Le bulletin a été fait il y a 29 minutes, à 16:55 UTC
Vent 3 kt de nord-est
Température 10°C
Humidité 57%
Pression 1028 hPa
Visibilité: 16.1 km
Nuages épars à une hauteur de 5500 ft

METAR: KDPL 141655Z AUTO 04003KT 10SM SCT055 10/02 A3035 RMK AO2

Heure: 12:24 (17:24 UTC)


TAF: absent

Observations et prévisions météorologiques de plus de 4000 aéroports (messages METAR et TAF).

Les stations disponibles sont représentées par des disques jaunes et rouges sur la carte.

Passer la souris dessus pour voir le nom de la station.

Cliquer dessus pour voir les observations et prévisions météorologiques.

Pour changer de carte: cliquez sur les boutons verts avec une croix noire pour zoomer, sur le bouton vert avec un tiret pour effectuer un zoom arrière, ou sur les flèches vertes pour les cartes adjacentes.


METAR-TAF: